This is the latest recevied weather packets stored in our database for station/object OZ0AJ-13. If no packets are shown the sender has not sent any weather packets the latest 10 day(s).
| Time | Temp. | Humidity | Pressure | Rain* | Wind** | Luminosity | Snow |
|---|---|---|---|---|---|---|---|
| 1777450231 | 11.11° C | 48% | 1031.7 hPa | 0 mm | - | - | - |
| 1777449627 | 11.11° C | 49% | 1031.6 hPa | 0 mm | - | - | - |
| 1777449023 | 10.56° C | 51% | 1031.5 hPa | 0 mm | - | - | - |
| 1777448419 | 10.56° C | 49% | 1031.5 hPa | 0 mm | - | - | - |
| 1777447815 | 10° C | 50% | 1031.6 hPa | 0 mm | - | - | - |
| 1777447232 | 10° C | 50% | 1031.6 hPa | 0 mm | - | - | - |
| 1777446628 | 9.44° C | 52% | 1031.5 hPa | 0 mm | - | - | - |
| 1777446024 | 9.44° C | 51% | 1031.6 hPa | 0 mm | - | - | - |
| 1777445420 | 8.89° C | 53% | 1031.3 hPa | 0 mm | - | - | - |
| 1777444816 | 8.33° C | 58% | 1031.4 hPa | 0 mm | - | - | - |
| 1777444232 | 8.33° C | 59% | 1031.3 hPa | 0 mm | - | - | - |
| 1777443628 | 7.78° C | 66% | 1031.2 hPa | 0 mm | - | - | - |
| 1777443024 | 7.22° C | 69% | 1031.2 hPa | 0 mm | - | - | - |
| 1777442420 | 6.67° C | 70% | 1031.1 hPa | 0 mm | - | - | - |
| 1777441817 | 6.11° C | 72% | 1031.1 hPa | 0 mm | - | - | - |
| 1777441233 | 5.56° C | 75% | 1031.4 hPa | 0 mm | - | - | - |
| 1777440629 | 5° C | 76% | 1031.1 hPa | 0 mm | - | - | - |
| 1777440025 | 4.44° C | 77% | 1031.1 hPa | 0 mm | - | - | - |
| 1777439421 | 4.44° C | 77% | 1030.9 hPa | 0 mm | - | - | - |
| 1777438817 | 3.89° C | 78% | 1031 hPa | 0 mm | - | - | - |
| 1777438234 | 3.89° C | 78% | 1030.9 hPa | 0 mm | - | - | - |
| 1777437630 | 3.33° C | 79% | 1030.8 hPa | 0 mm | - | - | - |
| 1777437026 | 3.33° C | 81% | 1030.5 hPa | 0 mm | - | - | - |
| 1777436422 | 2.78° C | 81% | 1030.7 hPa | 0 mm | - | - | - |
| 1777435818 | 2.78° C | 80% | 1030.6 hPa | 0 mm | - | - | - |
* Rain latest hour (hover to see other rain measurements)
** Current wind speed in m/s (hover to see current wind gust speed)